createdAt,value
2018-06-28T00:00:20.175Z,12.66
2018-06-28T00:01:28.242Z,12.63
2018-06-28T00:02:36.297Z,12.70
2018-06-28T00:03:44.378Z,12.83
2018-06-28T00:04:52.428Z,12.86
2018-06-28T00:06:00.479Z,12.87
2018-06-28T00:07:08.549Z,12.83
2018-06-28T00:08:16.610Z,12.81
2018-06-28T00:09:24.680Z,12.83
2018-06-28T00:10:32.749Z,12.83
2018-06-28T00:11:40.834Z,12.86
2018-06-28T00:12:48.866Z,12.81
2018-06-28T00:13:56.924Z,12.78
2018-06-28T00:15:05.010Z,12.68
2018-06-28T00:16:13.069Z,12.68
2018-06-28T00:17:21.129Z,12.69
2018-06-28T00:18:29.206Z,12.58
2018-06-28T00:19:37.259Z,12.57
2018-06-28T00:20:45.313Z,12.62
2018-06-28T00:21:53.401Z,12.58
2018-06-28T00:23:01.461Z,12.63
2018-06-28T00:24:09.503Z,12.58
2018-06-28T00:25:17.556Z,12.61
2018-06-28T00:26:25.668Z,12.65
2018-06-28T00:27:33.712Z,12.63
2018-06-28T00:28:41.768Z,12.61
2018-06-28T00:29:49.829Z,12.58
2018-06-28T00:30:57.890Z,12.62
2018-06-28T00:32:05.961Z,12.55
2018-06-28T00:33:14.033Z,12.54
2018-06-28T00:34:22.120Z,12.47
2018-06-28T00:35:30.166Z,12.45
2018-06-28T00:36:38.246Z,12.58
2018-06-28T00:37:46.301Z,12.55
2018-06-28T00:38:54.380Z,12.51
2018-06-28T00:40:02.426Z,12.53
2018-06-28T00:41:10.503Z,12.62
2018-06-28T00:42:18.561Z,12.54
2018-06-28T00:43:26.629Z,12.58
2018-06-28T00:44:34.692Z,12.58
2018-06-28T00:45:42.749Z,12.53
2018-06-28T00:46:50.811Z,12.51
2018-06-28T00:47:58.872Z,12.43
2018-06-28T00:49:06.958Z,12.45
2018-06-28T00:50:15.005Z,12.40
2018-06-28T00:51:23.068Z,12.57
2018-06-28T00:52:31.141Z,12.48
2018-06-28T00:53:39.195Z,12.53
2018-06-28T00:54:47.232Z,12.53
2018-06-28T00:55:55.327Z,12.57
2018-06-28T00:57:03.392Z,12.61
2018-06-28T00:58:11.456Z,12.58
2018-06-28T00:59:19.507Z,12.61
2018-06-28T01:00:27.562Z,12.57
2018-06-28T01:01:35.645Z,12.57
2018-06-28T01:02:43.716Z,12.62
2018-06-28T01:03:51.771Z,12.58
2018-06-28T01:04:59.820Z,12.58
2018-06-28T01:06:07.921Z,12.61
2018-06-28T01:07:15.972Z,12.54
2018-06-28T01:08:24.043Z,12.45
2018-06-28T01:09:32.162Z,12.48
2018-06-28T01:10:40.180Z,12.47
2018-06-28T01:11:48.236Z,12.44
2018-06-28T01:12:56.326Z,12.39
2018-06-28T01:14:04.376Z,12.35
2018-06-28T01:15:12.421Z,12.48
2018-06-28T01:16:20.474Z,12.45
2018-06-28T01:17:28.564Z,12.57
2018-06-28T01:18:36.622Z,12.53
2018-06-28T01:19:44.679Z,12.54
2018-06-28T01:20:52.742Z,12.57
2018-06-28T01:22:00.805Z,12.47
2018-06-28T01:23:08.892Z,12.43
2018-06-28T01:24:16.951Z,12.43
2018-06-28T01:25:25.025Z,12.40
2018-06-28T01:26:33.069Z,12.44
2018-06-28T01:27:41.136Z,12.45
2018-06-28T01:28:49.209Z,12.48
2018-06-28T01:29:57.248Z,12.50
2018-06-28T01:31:05.340Z,12.40
2018-06-28T01:32:13.394Z,12.45
2018-06-28T01:33:21.454Z,12.48
2018-06-28T01:34:29.542Z,12.45
2018-06-28T01:35:37.584Z,12.37
2018-06-28T01:36:45.673Z,12.39
2018-06-28T01:37:53.715Z,12.37
2018-06-28T01:39:01.808Z,12.33
2018-06-28T01:40:09.862Z,12.48
2018-06-28T01:41:17.908Z,12.37
2018-06-28T01:42:25.993Z,12.39
2018-06-28T01:43:34.042Z,12.39
2018-06-28T01:44:42.105Z,12.36
2018-06-28T01:45:50.177Z,12.47
2018-06-28T01:46:58.237Z,12.44
2018-06-28T01:48:06.307Z,12.47
2018-06-28T01:49:14.388Z,12.43
2018-06-28T01:50:22.434Z,12.47
2018-06-28T01:51:30.494Z,12.47
2018-06-28T01:52:38.580Z,12.30
2018-06-28T01:53:46.638Z,12.33
2018-06-28T01:54:54.686Z,12.32
2018-06-28T01:56:02.745Z,12.21
2018-06-28T01:57:10.816Z,12.20
2018-06-28T01:58:18.875Z,12.11
2018-06-28T01:59:26.927Z,12.11
2018-06-28T02:00:35.018Z,12.11
2018-06-28T02:01:43.084Z,12.14
2018-06-28T02:02:51.140Z,12.20
2018-06-28T02:03:59.215Z,12.18
2018-06-28T02:05:07.275Z,12.20
2018-06-28T02:06:15.330Z,12.33
2018-06-28T02:07:23.395Z,12.23
2018-06-28T02:08:31.465Z,12.33
2018-06-28T02:09:39.533Z,12.35
2018-06-28T02:10:47.578Z,12.32
2018-06-28T02:11:55.671Z,12.35
2018-06-28T02:13:03.735Z,12.33
2018-06-28T02:14:11.787Z,12.29
2018-06-28T02:15:19.869Z,12.30
2018-06-28T02:16:27.931Z,12.33
2018-06-28T02:17:35.996Z,12.23
2018-06-28T02:18:44.070Z,12.20
2018-06-28T02:19:52.149Z,12.36
2018-06-28T02:21:00.207Z,12.26
2018-06-28T02:22:08.256Z,12.29
2018-06-28T02:23:16.333Z,12.29
2018-06-28T02:24:24.394Z,12.33
2018-06-28T02:25:32.474Z,12.30
2018-06-28T02:26:40.522Z,12.35
2018-06-28T02:27:48.603Z,12.37
2018-06-28T02:28:56.648Z,12.39
2018-06-28T02:30:04.733Z,12.40
2018-06-28T02:31:12.808Z,12.45
2018-06-28T02:32:20.884Z,12.44
2018-06-28T02:33:28.935Z,12.44
2018-06-28T02:34:36.981Z,12.47
2018-06-28T02:35:45.060Z,12.48
2018-06-28T02:36:53.115Z,12.45
2018-06-28T02:38:01.220Z,12.45
2018-06-28T02:39:09.242Z,12.39
2018-06-28T02:40:17.291Z,12.44
2018-06-28T02:41:25.386Z,12.40
2018-06-28T02:42:33.453Z,12.40
2018-06-28T02:43:41.514Z,12.35
2018-06-28T02:44:49.591Z,12.33
2018-06-28T02:45:57.659Z,12.45
2018-06-28T02:47:05.710Z,12.39
2018-06-28T02:48:13.775Z,12.36
2018-06-28T02:49:21.848Z,12.43
2018-06-28T02:50:29.923Z,12.36
2018-06-28T02:51:37.975Z,12.35
2018-06-28T02:52:46.065Z,12.36
2018-06-28T02:53:54.111Z,12.33
2018-06-28T02:55:02.182Z,12.29
2018-06-28T02:56:10.247Z,12.33
2018-06-28T02:57:18.314Z,12.21
2018-06-28T02:58:26.379Z,12.20
2018-06-28T02:59:34.432Z,12.18
2018-06-28T03:00:42.517Z,12.10
2018-06-28T03:01:50.561Z,12.15
2018-06-28T03:02:58.628Z,12.15
2018-06-28T03:04:06.692Z,12.15
2018-06-28T03:05:14.780Z,12.12
2018-06-28T03:06:22.841Z,12.17
2018-06-28T03:07:31.003Z,12.11
2018-06-28T03:08:38.962Z,12.15
2018-06-28T03:09:47.007Z,12.20
2018-06-28T03:10:55.112Z,12.10
2018-06-28T03:12:03.160Z,12.12
2018-06-28T03:13:11.226Z,12.12
2018-06-28T03:14:19.285Z,12.12
2018-06-28T03:15:27.328Z,12.14
2018-06-28T03:16:35.411Z,12.14
2018-06-28T03:17:43.475Z,12.12
2018-06-28T03:18:51.550Z,12.11
2018-06-28T03:19:59.629Z,12.12
2018-06-28T03:21:07.683Z,12.11
2018-06-28T03:22:15.748Z,12.10
2018-06-28T03:23:23.832Z,12.11
2018-06-28T03:24:31.900Z,12.05
2018-06-28T03:25:39.947Z,12.18
2018-06-28T03:26:48.032Z,12.23
2018-06-28T03:27:56.089Z,12.21
2018-06-28T03:29:04.174Z,12.26
2018-06-28T03:30:12.221Z,12.23
2018-06-28T03:31:20.282Z,12.17
2018-06-28T03:32:28.360Z,12.15
2018-06-28T03:33:36.400Z,12.10
2018-06-28T03:34:44.480Z,12.18
2018-06-28T03:35:52.565Z,12.25
2018-06-28T03:37:00.614Z,12.18
2018-06-28T03:38:08.682Z,12.26
2018-06-28T03:39:16.745Z,12.21
2018-06-28T03:40:24.810Z,12.23
2018-06-28T03:41:32.880Z,12.23
2018-06-28T03:42:40.922Z,12.18
2018-06-28T03:43:48.997Z,12.14
2018-06-28T03:44:57.057Z,12.11
2018-06-28T03:46:05.127Z,12.14
2018-06-28T03:47:13.179Z,12.11
2018-06-28T03:48:21.256Z,12.12
2018-06-28T03:49:29.318Z,12.07
2018-06-28T03:50:37.406Z,12.07
2018-06-28T03:51:45.457Z,12.00
2018-06-28T03:52:53.503Z,12.03
2018-06-28T03:54:01.614Z,11.99
2018-06-28T03:55:09.632Z,11.95
2018-06-28T03:56:17.726Z,11.93
2018-06-28T03:57:25.802Z,11.85
2018-06-28T03:58:33.829Z,11.83
2018-06-28T03:59:41.907Z,11.93
2018-06-28T04:00:51.258Z,12.03
2018-06-28T04:01:58.035Z,12.07
2018-06-28T04:03:06.105Z,12.05
2018-06-28T04:04:14.159Z,12.08
2018-06-28T04:05:22.225Z,12.08
2018-06-28T04:06:30.346Z,12.00
2018-06-28T04:07:38.351Z,12.03
2018-06-28T04:08:46.412Z,12.05
2018-06-28T04:09:54.484Z,11.97
2018-06-28T04:11:02.552Z,12.07
2018-06-28T04:12:10.611Z,11.91
2018-06-28T04:13:18.717Z,12.05
2018-06-28T04:14:26.732Z,12.00
2018-06-28T04:15:34.797Z,11.91
2018-06-28T04:16:42.897Z,12.02
2018-06-28T04:17:50.932Z,12.00
2018-06-28T04:18:59.001Z,12.07
2018-06-28T04:20:07.040Z,12.08
2018-06-28T04:21:15.134Z,12.07
2018-06-28T04:22:23.227Z,12.03
2018-06-28T04:23:31.245Z,12.10
2018-06-28T04:24:39.324Z,12.11
2018-06-28T04:25:47.360Z,12.10
2018-06-28T04:26:55.507Z,12.11
2018-06-28T04:28:03.522Z,12.10
2018-06-28T04:29:11.592Z,12.12
2018-06-28T04:30:19.634Z,12.11
2018-06-28T04:31:27.696Z,12.11
2018-06-28T04:32:35.787Z,12.14
2018-06-28T04:33:44.399Z,12.08
2018-06-28T04:34:51.923Z,12.20
2018-06-28T04:35:59.974Z,12.21
2018-06-28T04:37:08.299Z,12.33
2018-06-28T04:38:16.090Z,12.37
2018-06-28T04:39:24.173Z,12.40
2018-06-28T04:40:32.224Z,12.45
2018-06-28T04:41:40.297Z,12.37
2018-06-28T04:42:48.361Z,12.43
2018-06-28T04:43:56.418Z,12.57
2018-06-28T04:45:04.491Z,12.57
2018-06-28T04:46:12.571Z,12.57
2018-06-28T04:47:20.725Z,12.62
2018-06-28T04:48:28.678Z,12.58
2018-06-28T04:49:36.733Z,12.69
2018-06-28T04:50:44.945Z,12.68
2018-06-28T04:51:52.884Z,12.68
2018-06-28T04:53:00.954Z,12.83
2018-06-28T04:54:08.999Z,12.83
2018-06-28T04:55:17.705Z,12.81
2018-06-28T04:56:25.145Z,12.83
2018-06-28T04:57:33.205Z,12.90
2018-06-28T04:58:41.267Z,12.94
2018-06-28T04:59:49.318Z,12.88
2018-06-28T05:00:57.380Z,12.94
2018-06-28T05:02:05.468Z,13.01
2018-06-28T05:03:13.531Z,12.94
2018-06-28T05:04:21.643Z,13.02
2018-06-28T05:05:29.663Z,13.02
2018-06-28T05:06:37.743Z,13.11
2018-06-28T05:07:45.813Z,13.17
2018-06-28T05:08:53.892Z,13.30
2018-06-28T05:10:01.927Z,13.82
2018-06-28T05:11:10.021Z,14.36
2018-06-28T05:12:18.062Z,14.41
2018-06-28T05:13:26.141Z,14.40
2018-06-28T05:14:34.194Z,14.18
2018-06-28T05:15:42.284Z,14.12
2018-06-28T05:16:50.336Z,14.07
2018-06-28T05:17:58.437Z,13.98
2018-06-28T05:19:06.480Z,13.89
2018-06-28T05:20:14.666Z,13.93
2018-06-28T05:21:22.701Z,13.89
2018-06-28T05:22:32.319Z,13.85
2018-06-28T05:23:38.828Z,13.85
2018-06-28T05:24:46.835Z,13.83
2018-06-28T05:25:54.850Z,13.86
2018-06-28T05:27:02.910Z,13.87
2018-06-28T05:28:10.987Z,13.83
2018-06-28T05:29:19.118Z,13.86
2018-06-28T05:30:27.124Z,13.98
2018-06-28T05:31:35.169Z,13.91
2018-06-28T05:32:43.231Z,13.98
2018-06-28T05:33:51.303Z,14.03
2018-06-28T05:34:59.383Z,14.08
2018-06-28T05:36:07.407Z,14.04
2018-06-28T05:37:15.494Z,14.11
2018-06-28T05:38:23.566Z,14.13
2018-06-28T05:39:31.624Z,14.05
2018-06-28T05:40:39.691Z,14.22
2018-06-28T05:41:47.781Z,14.19
2018-06-28T05:42:55.830Z,14.23
2018-06-28T05:44:03.883Z,14.18
2018-06-28T05:45:11.957Z,14.31
2018-06-28T05:46:20.017Z,14.28
2018-06-28T05:47:28.107Z,14.34
2018-06-28T05:48:36.153Z,14.34
2018-06-28T05:49:44.223Z,14.36
2018-06-28T05:50:52.307Z,14.37
2018-06-28T05:52:00.370Z,14.40
2018-06-28T05:53:08.425Z,14.45
2018-06-28T05:54:16.491Z,14.45
2018-06-28T05:55:24.552Z,14.44
2018-06-28T05:56:32.620Z,14.44
2018-06-28T05:57:40.722Z,14.41
2018-06-28T05:58:48.755Z,14.55
2018-06-28T05:59:56.792Z,14.49
2018-06-28T06:01:04.883Z,14.62
2018-06-28T06:02:12.951Z,14.58
2018-06-28T06:03:21.016Z,14.66
2018-06-28T06:04:29.129Z,14.56
2018-06-28T06:05:37.122Z,14.70
2018-06-28T06:06:45.239Z,14.66
2018-06-28T06:07:53.278Z,14.66
2018-06-28T06:09:01.349Z,14.78
2018-06-28T06:10:09.455Z,14.89
2018-06-28T06:11:17.463Z,14.87
2018-06-28T06:12:25.551Z,14.85
2018-06-28T06:13:33.609Z,14.94
2018-06-28T06:14:41.727Z,14.99
2018-06-28T06:15:49.741Z,15.04
2018-06-28T06:16:57.815Z,14.97
2018-06-28T06:18:05.876Z,15.04
2018-06-28T06:19:13.944Z,14.96
2018-06-28T06:20:22.043Z,15.11
2018-06-28T06:21:30.089Z,15.12
2018-06-28T06:22:38.147Z,15.23
2018-06-28T06:23:46.230Z,15.18
2018-06-28T06:24:54.296Z,15.23
2018-06-28T06:26:02.363Z,15.33
2018-06-28T06:27:10.433Z,15.26
2018-06-28T06:28:18.486Z,15.25
2018-06-28T06:29:26.586Z,15.35
2018-06-28T06:30:34.610Z,15.35
2018-06-28T06:31:42.682Z,15.47
2018-06-28T06:32:50.751Z,15.41
2018-06-28T06:33:58.815Z,15.48
2018-06-28T06:35:06.894Z,15.43
2018-06-28T06:36:14.984Z,15.51
2018-06-28T06:37:23.019Z,15.55
2018-06-28T06:38:31.078Z,15.67
2018-06-28T06:39:39.152Z,15.70
2018-06-28T06:40:47.199Z,15.70
2018-06-28T06:41:55.279Z,15.75
2018-06-28T06:43:03.336Z,15.87
2018-06-28T06:44:11.410Z,15.84
2018-06-28T06:45:19.491Z,15.87
2018-06-28T06:46:27.522Z,15.98
2018-06-28T06:47:35.624Z,15.96
2018-06-28T06:48:43.710Z,15.92
2018-06-28T06:49:51.748Z,16.08
2018-06-28T06:50:59.844Z,16.09
2018-06-28T06:52:07.880Z,16.18
2018-06-28T06:53:15.966Z,16.22
2018-06-28T06:54:24.057Z,16.26
2018-06-28T06:55:32.114Z,16.36
2018-06-28T06:56:40.177Z,16.28
2018-06-28T06:57:48.244Z,16.40
2018-06-28T06:58:56.317Z,16.49
2018-06-28T07:00:04.373Z,16.58
2018-06-28T07:01:12.443Z,16.66
2018-06-28T07:02:20.503Z,16.65
2018-06-28T07:03:28.587Z,16.76
2018-06-28T07:04:36.651Z,16.91
2018-06-28T07:05:44.713Z,16.97
2018-06-28T07:06:52.784Z,17.20
2018-06-28T07:08:00.899Z,17.35
2018-06-28T07:09:14.038Z,17.53
2018-06-28T07:10:21.249Z,17.78
2018-06-28T07:11:35.885Z,18.05
2018-06-28T07:12:38.349Z,18.24
2018-06-28T07:13:45.799Z,18.52
2018-06-28T07:14:53.877Z,18.79
2018-06-28T07:16:02.067Z,19.01
2018-06-28T07:17:10.086Z,19.30
2018-06-28T07:18:18.073Z,19.57
2018-06-28T07:19:26.159Z,19.67
2018-06-28T07:20:34.233Z,19.82
2018-06-28T07:21:42.288Z,20.03
2018-06-28T07:22:50.424Z,20.29
2018-06-28T07:23:58.434Z,20.59
2018-06-28T07:25:06.508Z,20.73
2018-06-28T07:26:14.589Z,20.92
2018-06-28T07:27:22.664Z,20.95
2018-06-28T07:28:30.803Z,21.32
2018-06-28T07:29:38.820Z,21.47
2018-06-28T07:30:46.851Z,21.69
2018-06-28T07:31:54.949Z,21.70
2018-06-28T07:33:03.104Z,21.62
2018-06-28T07:34:11.116Z,21.50
2018-06-28T07:35:19.299Z,21.07
2018-06-28T07:36:27.229Z,21.41
2018-06-28T07:37:35.322Z,21.81
2018-06-28T07:38:43.410Z,22.51
2018-06-28T07:39:51.503Z,22.73
2018-06-28T07:40:59.567Z,22.89
2018-06-28T07:42:07.622Z,23.33
2018-06-28T07:43:15.717Z,23.23
2018-06-28T07:44:23.794Z,23.54
2018-06-28T07:45:31.876Z,24.00
2018-06-28T07:46:42.176Z,24.31
2018-06-28T07:47:55.556Z,24.78
2018-06-28T07:49:03.635Z,25.18
2018-06-28T07:50:11.640Z,25.55
2018-06-28T07:51:19.723Z,25.61
2018-06-28T07:52:27.809Z,25.31
2018-06-28T07:53:35.892Z,24.22
2018-06-28T07:54:43.959Z,23.89
2018-06-28T07:55:52.038Z,23.47
2018-06-28T07:57:00.124Z,23.14
2018-06-28T07:58:08.206Z,22.89
2018-06-28T07:59:16.263Z,22.80
2018-06-28T08:00:24.357Z,22.78
2018-06-28T08:01:32.438Z,22.63
2018-06-28T08:02:40.545Z,22.36
2018-06-28T08:03:48.711Z,22.26
2018-06-28T08:04:56.656Z,22.08
2018-06-28T08:06:04.743Z,21.80
2018-06-28T08:07:12.811Z,21.65
2018-06-28T08:08:20.907Z,21.23
2018-06-28T08:09:28.969Z,21.25
2018-06-28T08:10:37.048Z,21.28
2018-06-28T08:11:45.126Z,22.25
2018-06-28T08:12:53.198Z,22.80
2018-06-28T08:14:01.299Z,23.40
2018-06-28T08:15:09.363Z,23.56
2018-06-28T08:16:17.400Z,24.10
2018-06-28T08:17:25.509Z,24.44
2018-06-28T08:18:33.568Z,24.89
2018-06-28T08:19:41.671Z,24.97
2018-06-28T08:20:49.746Z,24.65
2018-06-28T08:21:57.804Z,25.14
2018-06-28T08:23:05.900Z,25.70
2018-06-28T08:24:13.986Z,25.73
2018-06-28T08:25:22.062Z,25.67
2018-06-28T08:26:30.125Z,25.43
2018-06-28T08:27:38.229Z,25.73
2018-06-28T08:28:47.259Z,25.62
2018-06-28T08:29:59.391Z,25.58
2018-06-28T08:31:03.435Z,25.86
2018-06-28T08:32:11.548Z,26.31
2018-06-28T08:33:19.597Z,25.18
2018-06-28T08:34:27.666Z,25.48
2018-06-28T08:35:35.773Z,26.10
2018-06-28T08:36:43.856Z,26.03
2018-06-28T08:37:51.934Z,25.29
2018-06-28T08:39:00.008Z,24.77
2018-06-28T08:40:08.096Z,24.51
2018-06-28T08:41:16.172Z,24.61
2018-06-28T08:42:24.245Z,24.44
2018-06-28T08:43:32.341Z,24.61
2018-06-28T08:44:40.416Z,24.65
2018-06-28T08:45:48.496Z,24.94
2018-06-28T08:46:56.574Z,25.06
2018-06-28T08:48:04.646Z,25.11
2018-06-28T08:49:12.746Z,24.61
2018-06-28T08:50:20.814Z,24.92
2018-06-28T08:51:28.896Z,24.34
2018-06-28T08:52:36.948Z,24.62
2018-06-28T08:53:45.057Z,24.48
2018-06-28T08:54:53.141Z,24.65
2018-06-28T08:56:01.218Z,24.69
2018-06-28T08:57:09.309Z,24.86
2018-06-28T08:58:17.442Z,24.86
2018-06-28T08:59:25.458Z,24.94
2018-06-28T09:00:33.544Z,25.33
2018-06-28T09:01:41.623Z,25.40
2018-06-28T09:02:49.718Z,25.39
2018-06-28T09:03:57.779Z,25.58
2018-06-28T09:05:05.873Z,25.91
2018-06-28T09:06:13.940Z,26.16
2018-06-28T09:07:22.046Z,24.79
2018-06-28T09:08:30.121Z,24.92
2018-06-28T09:09:38.205Z,24.62
2018-06-28T09:10:46.280Z,24.55
2018-06-28T09:11:54.372Z,24.55
2018-06-28T09:13:02.439Z,24.28
2018-06-28T09:14:10.527Z,24.36
2018-06-28T09:15:18.628Z,23.99
2018-06-28T09:16:26.676Z,23.55
2018-06-28T09:17:34.769Z,23.89
2018-06-28T09:18:42.855Z,23.89
2018-06-28T09:19:50.937Z,24.21
2018-06-28T09:20:59.007Z,24.51
2018-06-28T09:22:07.069Z,24.41
2018-06-28T09:23:15.194Z,24.56
2018-06-28T09:24:23.263Z,24.41
2018-06-28T09:25:31.348Z,23.94
2018-06-28T09:26:39.431Z,23.89
2018-06-28T09:27:47.477Z,23.86
2018-06-28T09:28:55.584Z,23.81
2018-06-28T09:30:03.688Z,23.86
2018-06-28T09:31:11.772Z,23.73
2018-06-28T09:32:19.833Z,23.44
2018-06-28T09:33:27.903Z,22.98
2018-06-28T09:34:36.001Z,22.80
2018-06-28T09:35:44.094Z,22.65
2018-06-28T09:36:52.155Z,22.67
2018-06-28T09:38:00.225Z,22.21
2018-06-28T09:39:08.324Z,22.06
2018-06-28T09:40:16.402Z,21.97
2018-06-28T09:41:24.458Z,22.23
2018-06-28T09:42:32.536Z,22.22
2018-06-28T09:43:40.612Z,22.41
2018-06-28T09:44:48.700Z,22.56
2018-06-28T09:45:56.758Z,22.55
2018-06-28T09:47:04.891Z,22.78
2018-06-28T09:48:12.920Z,22.61
2018-06-28T09:49:20.995Z,22.74
2018-06-28T09:50:29.078Z,22.74
2018-06-28T09:51:37.138Z,22.65
2018-06-28T09:52:45.205Z,22.38
2018-06-28T09:53:53.316Z,22.26
2018-06-28T09:55:01.374Z,22.52
2018-06-28T09:56:09.440Z,22.40
2018-06-28T09:57:17.493Z,22.22
2018-06-28T09:58:25.595Z,22.21
2018-06-28T09:59:33.674Z,22.01
2018-06-28T10:00:41.750Z,22.25
2018-06-28T10:01:49.807Z,22.53
2018-06-28T10:02:57.883Z,22.59
2018-06-28T10:04:05.981Z,22.59
2018-06-28T10:05:14.027Z,22.46
2018-06-28T10:06:22.114Z,21.81
2018-06-28T10:07:30.190Z,21.56
2018-06-28T10:08:38.248Z,21.74
2018-06-28T10:09:46.340Z,21.70
2018-06-28T10:10:54.407Z,22.03
2018-06-28T10:12:02.524Z,22.21
2018-06-28T10:13:10.574Z,22.53
2018-06-28T10:14:18.612Z,22.65
2018-06-28T10:15:26.704Z,22.58
2018-06-28T10:16:34.772Z,22.91
2018-06-28T10:17:42.836Z,22.83
2018-06-28T10:18:50.926Z,22.86
2018-06-28T10:19:58.989Z,22.88
2018-06-28T10:21:07.033Z,22.74
2018-06-28T10:22:15.132Z,22.91
2018-06-28T10:23:23.201Z,22.98
2018-06-28T10:24:31.322Z,22.89
2018-06-28T10:25:39.350Z,23.10
2018-06-28T10:26:47.403Z,23.20
2018-06-28T10:27:55.504Z,23.20
2018-06-28T10:29:03.643Z,23.32
2018-06-28T10:30:11.643Z,23.13
2018-06-28T10:31:19.735Z,23.23
2018-06-28T10:32:27.783Z,22.86
2018-06-28T10:33:35.851Z,22.74
2018-06-28T10:34:43.935Z,22.86
2018-06-28T10:35:52.017Z,22.78
2018-06-28T10:37:00.079Z,22.78
2018-06-28T10:38:08.157Z,22.63
2018-06-28T10:39:16.230Z,22.38
2018-06-28T10:40:24.300Z,22.06
2018-06-28T10:41:32.379Z,21.94
2018-06-28T10:42:40.436Z,21.84
2018-06-28T10:43:48.535Z,21.65
2018-06-28T10:44:56.617Z,21.62
2018-06-28T10:46:04.669Z,21.65
2018-06-28T10:47:12.743Z,21.91
2018-06-28T10:48:20.822Z,22.14
2018-06-28T10:49:28.895Z,22.19
2018-06-28T10:50:36.989Z,22.12
2018-06-28T10:51:45.052Z,22.01
2018-06-28T10:52:53.115Z,22.08
2018-06-28T10:54:01.217Z,21.99
2018-06-28T10:55:09.248Z,21.88
2018-06-28T10:56:17.309Z,22.01
2018-06-28T10:57:25.410Z,22.22
2018-06-28T10:58:33.473Z,22.30
2018-06-28T10:59:41.551Z,22.23
2018-06-28T11:00:49.627Z,22.19
2018-06-28T11:01:57.691Z,22.21
2018-06-28T11:03:05.768Z,22.08
2018-06-28T11:04:13.841Z,21.68
2018-06-28T11:05:21.902Z,21.41
2018-06-28T11:06:29.983Z,21.33
2018-06-28T11:07:38.093Z,21.32
2018-06-28T11:08:46.122Z,21.25
2018-06-28T11:09:54.199Z,21.07
2018-06-28T11:11:02.274Z,20.93
2018-06-28T11:12:10.342Z,20.92
2018-06-28T11:13:20.483Z,20.71
2018-06-28T11:14:30.731Z,20.71
2018-06-28T11:15:38.828Z,20.50
2018-06-28T11:16:46.857Z,20.19
2018-06-28T11:17:54.948Z,19.94
2018-06-28T11:19:03.039Z,19.39
2018-06-28T11:20:11.080Z,19.16
2018-06-28T11:21:19.150Z,18.83
2018-06-28T11:22:27.197Z,18.71
2018-06-28T11:23:35.307Z,18.74
2018-06-28T11:24:43.370Z,18.61
2018-06-28T11:25:51.440Z,18.60
2018-06-28T11:26:59.526Z,18.55
2018-06-28T11:28:07.567Z,18.53
2018-06-28T11:29:15.711Z,18.57
2018-06-28T11:30:23.718Z,18.48
2018-06-28T11:31:31.806Z,18.34
2018-06-28T11:32:39.865Z,18.34
2018-06-28T11:33:47.938Z,18.45
2018-06-28T11:34:56.013Z,18.45
2018-06-28T11:36:04.088Z,18.52
2018-06-28T11:37:12.141Z,18.49
2018-06-28T11:38:20.218Z,18.60
2018-06-28T11:39:28.293Z,18.74
2018-06-28T11:40:36.364Z,18.71
2018-06-28T11:41:44.423Z,18.74
2018-06-28T11:42:52.509Z,18.70
2018-06-28T11:44:00.566Z,18.81
2018-06-28T11:45:08.638Z,18.86
2018-06-28T11:46:16.697Z,18.79
2018-06-28T11:47:24.770Z,18.78
2018-06-28T11:48:32.861Z,18.82
2018-06-28T11:49:40.904Z,18.70
2018-06-28T11:50:48.989Z,18.74
2018-06-28T11:51:57.048Z,18.70
2018-06-28T11:53:05.132Z,18.78
2018-06-28T11:54:13.208Z,18.82
2018-06-28T11:55:21.275Z,18.57
2018-06-28T11:56:29.353Z,18.70
2018-06-28T11:57:37.390Z,18.82
2018-06-28T11:58:45.481Z,18.94
2018-06-28T11:59:53.553Z,19.23
2018-06-28T12:01:01.623Z,19.38
2018-06-28T12:02:09.688Z,19.48
2018-06-28T12:03:17.747Z,19.47
2018-06-28T12:04:25.845Z,19.34
2018-06-28T12:05:33.946Z,19.24
2018-06-28T12:06:41.980Z,19.26
2018-06-28T12:07:50.053Z,19.24
2018-06-28T12:08:58.123Z,19.30
2018-06-28T12:10:06.194Z,19.27
2018-06-28T12:11:14.263Z,19.17
2018-06-28T12:12:22.324Z,19.27
2018-06-28T12:13:30.402Z,19.37
2018-06-28T12:14:38.486Z,19.59
2018-06-28T12:15:46.565Z,19.77
2018-06-28T12:16:54.611Z,19.99
2018-06-28T12:18:02.688Z,20.21
2018-06-28T12:19:10.761Z,20.15
2018-06-28T12:20:18.805Z,20.26
2018-06-28T12:21:26.872Z,20.33
2018-06-28T12:22:34.972Z,20.53
2018-06-28T12:23:43.035Z,20.63
2018-06-28T12:24:51.104Z,20.73
2018-06-28T12:25:59.181Z,20.53
2018-06-28T12:27:07.223Z,20.53
2018-06-28T12:28:15.336Z,20.83
2018-06-28T12:29:23.393Z,20.95
2018-06-28T12:30:31.467Z,21.14
2018-06-28T12:31:39.557Z,21.32
2018-06-28T12:32:47.587Z,21.33
2018-06-28T12:33:55.683Z,21.35
2018-06-28T12:35:03.752Z,21.48
2018-06-28T12:36:11.821Z,21.78
2018-06-28T12:37:19.893Z,21.99
2018-06-28T12:38:27.978Z,22.08
2018-06-28T12:39:36.053Z,22.23
2018-06-28T12:40:44.119Z,22.03
2018-06-28T12:41:52.185Z,22.30
2018-06-28T12:43:00.250Z,22.52
2018-06-28T12:44:08.347Z,22.78
2018-06-28T12:45:16.401Z,22.88
2018-06-28T12:46:43.696Z,23.10
2018-06-28T12:47:32.548Z,23.17
2018-06-28T12:48:40.639Z,22.58
2018-06-28T12:49:48.792Z,22.58
2018-06-28T12:50:56.758Z,22.26
2018-06-28T12:52:04.819Z,21.77
2018-06-28T12:53:12.904Z,21.74
2018-06-28T12:54:21.046Z,21.75
2018-06-28T12:55:29.039Z,21.72
2018-06-28T12:56:37.103Z,21.88
2018-06-28T12:57:50.421Z,22.19
2018-06-28T12:58:54.483Z,22.51
2018-06-28T13:00:03.998Z,22.93
2018-06-28T13:01:10.620Z,23.33
2018-06-28T13:02:20.508Z,23.59
2018-06-28T13:03:28.581Z,23.95
2018-06-28T13:04:36.646Z,23.92
2018-06-28T13:05:44.726Z,23.95
2018-06-28T13:06:52.805Z,23.33
2018-06-28T13:08:00.865Z,23.07
2018-06-28T13:09:08.955Z,22.86
2018-06-28T13:10:17.005Z,22.71
2018-06-28T13:11:25.105Z,22.52
2018-06-28T13:12:33.147Z,22.16
2018-06-28T13:13:41.237Z,21.83
2018-06-28T13:14:49.305Z,21.68
2018-06-28T13:15:57.352Z,21.69
2018-06-28T13:17:05.447Z,21.77
2018-06-28T13:18:13.533Z,22.06
2018-06-28T13:19:21.596Z,22.22
2018-06-28T13:20:29.733Z,22.56
2018-06-28T13:21:37.718Z,22.76
2018-06-28T13:22:45.816Z,22.84
2018-06-28T13:23:53.880Z,22.83
2018-06-28T13:25:01.977Z,23.06
2018-06-28T13:26:10.040Z,23.11
2018-06-28T13:27:18.112Z,22.74
2018-06-28T13:28:30.594Z,22.78
2018-06-28T13:29:38.483Z,22.40
2018-06-28T13:30:46.562Z,22.28
2018-06-28T13:31:54.640Z,22.31
2018-06-28T13:33:02.711Z,22.44
2018-06-28T13:34:10.773Z,22.47
2018-06-28T13:35:18.856Z,22.26
2018-06-28T13:36:26.931Z,22.26
2018-06-28T13:37:35.004Z,22.07
2018-06-28T13:38:43.057Z,22.07
2018-06-28T13:39:51.142Z,21.88
2018-06-28T13:40:59.315Z,21.75
2018-06-28T13:42:07.375Z,21.77
2018-06-28T13:43:15.353Z,21.94
2018-06-28T13:44:23.424Z,22.06
2018-06-28T13:45:31.509Z,21.77
2018-06-28T13:46:39.583Z,21.91
2018-06-28T13:47:47.628Z,21.77
2018-06-28T13:48:55.729Z,21.72
2018-06-28T13:50:03.792Z,21.65
2018-06-28T13:51:11.864Z,21.65
2018-06-28T13:52:19.951Z,21.63
2018-06-28T13:53:27.998Z,21.74
2018-06-28T13:54:36.087Z,21.81
2018-06-28T13:55:44.170Z,21.96
2018-06-28T13:56:52.231Z,22.19
2018-06-28T13:58:00.294Z,22.14
2018-06-28T13:59:08.375Z,22.21
2018-06-28T14:00:16.447Z,22.43
2018-06-28T14:01:24.517Z,22.62
2018-06-28T14:02:32.609Z,22.76
2018-06-28T14:03:40.663Z,22.61
2018-06-28T14:04:48.725Z,22.04
2018-06-28T14:05:56.772Z,21.89
2018-06-28T14:07:04.884Z,21.75
2018-06-28T14:08:12.960Z,21.65
2018-06-28T14:09:21.061Z,21.62
2018-06-28T14:10:41.893Z,21.53
2018-06-28T14:11:37.141Z,21.47
2018-06-28T14:12:46.521Z,21.20
2018-06-28T14:13:54.523Z,21.05
2018-06-28T14:15:07.843Z,20.92
2018-06-28T14:16:11.867Z,20.80
2018-06-28T14:17:19.347Z,20.83
2018-06-28T14:18:28.017Z,21.01
2018-06-28T14:19:35.485Z,21.35
2018-06-28T14:20:43.559Z,21.59
2018-06-28T14:21:51.616Z,21.62
2018-06-28T14:22:59.681Z,21.62
2018-06-28T14:24:07.751Z,21.53
2018-06-28T14:25:15.832Z,21.65
2018-06-28T14:26:23.899Z,21.69
2018-06-28T14:27:31.984Z,21.50
2018-06-28T14:28:40.061Z,21.56
2018-06-28T14:29:48.123Z,21.63
2018-06-28T14:30:56.203Z,21.81
2018-06-28T14:32:04.270Z,21.84
2018-06-28T14:33:12.342Z,22.12
2018-06-28T14:34:24.962Z,22.12
2018-06-28T14:35:32.925Z,22.22
2018-06-28T14:36:41.002Z,22.18